sensor_id;sensor_type;location;lat;lon;timestamp;temperature;humidity
31369;DHT22;18004;48.416;10.066;2022-10-31T00:03:48;9.90;99.90
31369;DHT22;18004;48.416;10.066;2022-10-31T00:06:13;9.80;99.90
31369;DHT22;18004;48.416;10.066;2022-10-31T00:08:39;9.80;99.90
31369;DHT22;18004;48.416;10.066;2022-10-31T00:11:08;9.80;99.90
31369;DHT22;18004;48.416;10.066;2022-10-31T00:13:34;9.80;99.90
31369;DHT22;18004;48.416;10.066;2022-10-31T00:15:59;9.80;99.90
31369;DHT22;18004;48.416;10.066;2022-10-31T00:18:25;9.70;99.90
31369;DHT22;18004;48.416;10.066;2022-10-31T00:21:00;9.70;99.90
31369;DHT22;18004;48.416;10.066;2022-10-31T00:23:26;9.70;99.90
31369;DHT22;18004;48.416;10.066;2022-10-31T00:25:52;9.70;99.90
31369;DHT22;18004;48.416;10.066;2022-10-31T00:28:17;9.70;99.90
31369;DHT22;18004;48.416;10.066;2022-10-31T00:30:43;9.70;99.90
31369;DHT22;18004;48.416;10.066;2022-10-31T00:33:08;9.70;99.90
31369;DHT22;18004;48.416;10.066;2022-10-31T00:35:34;9.70;99.90
31369;DHT22;18004;48.416;10.066;2022-10-31T00:38:00;9.70;99.90
31369;DHT22;18004;48.416;10.066;2022-10-31T00:40:25;9.70;99.90
31369;DHT22;18004;48.416;10.066;2022-10-31T00:42:51;9.70;99.90
31369;DHT22;18004;48.416;10.066;2022-10-31T00:45:17;9.70;99.90
31369;DHT22;18004;48.416;10.066;2022-10-31T00:47:42;9.70;99.90
31369;DHT22;18004;48.416;10.066;2022-10-31T00:50:08;9.60;99.90
31369;DHT22;18004;48.416;10.066;2022-10-31T00:52:34;9.60;99.90
31369;DHT22;18004;48.416;10.066;2022-10-31T00:54:59;9.60;99.90
31369;DHT22;18004;48.416;10.066;2022-10-31T00:57:25;9.60;99.90
31369;DHT22;18004;48.416;10.066;2022-10-31T00:59:50;9.60;99.90
31369;DHT22;18004;48.416;10.066;2022-10-31T01:02:16;9.60;99.90
31369;DHT22;18004;48.416;10.066;2022-10-31T01:04:42;9.60;99.90
31369;DHT22;18004;48.416;10.066;2022-10-31T01:07:07;9.60;99.90
31369;DHT22;18004;48.416;10.066;2022-10-31T01:09:33;9.60;99.90
31369;DHT22;18004;48.416;10.066;2022-10-31T01:11:58;9.50;99.90
31369;DHT22;18004;48.416;10.066;2022-10-31T01:14:24;9.50;99.90
31369;DHT22;18004;48.416;10.066;2022-10-31T01:16:50;9.50;99.90
31369;DHT22;18004;48.416;10.066;2022-10-31T01:19:15;9.50;99.90
31369;DHT22;18004;48.416;10.066;2022-10-31T01:21:41;9.50;99.90
31369;DHT22;18004;48.416;10.066;2022-10-31T01:24:07;9.40;99.90
31369;DHT22;18004;48.416;10.066;2022-10-31T01:26:33;9.40;99.90
31369;DHT22;18004;48.416;10.066;2022-10-31T01:29:00;9.50;99.90
31369;DHT22;18004;48.416;10.066;2022-10-31T01:31:28;9.50;99.90
31369;DHT22;18004;48.416;10.066;2022-10-31T01:33:54;9.40;99.90
31369;DHT22;18004;48.416;10.066;2022-10-31T01:36:24;9.50;99.90
31369;DHT22;18004;48.416;10.066;2022-10-31T01:38:51;9.40;99.90
31369;DHT22;18004;48.416;10.066;2022-10-31T01:41:17;9.40;99.90
31369;DHT22;18004;48.416;10.066;2022-10-31T01:46:16;9.50;99.90
31369;DHT22;18004;48.416;10.066;2022-10-31T01:48:42;9.40;99.90
31369;DHT22;18004;48.416;10.066;2022-10-31T01:51:08;9.40;99.90
31369;DHT22;18004;48.416;10.066;2022-10-31T01:53:36;9.40;99.90
31369;DHT22;18004;48.416;10.066;2022-10-31T01:56:02;9.40;99.90
31369;DHT22;18004;48.416;10.066;2022-10-31T01:58:28;9.40;99.90
31369;DHT22;18004;48.416;10.066;2022-10-31T02:00:57;9.30;99.90
31369;DHT22;18004;48.416;10.066;2022-10-31T02:03:24;9.30;99.90
31369;DHT22;18004;48.416;10.066;2022-10-31T02:05:50;9.30;99.90
31369;DHT22;18004;48.416;10.066;2022-10-31T02:08:20;9.20;99.90
31369;DHT22;18004;48.416;10.066;2022-10-31T02:10:46;9.20;99.90
31369;DHT22;18004;48.416;10.066;2022-10-31T02:13:12;9.20;99.90
31369;DHT22;18004;48.416;10.066;2022-10-31T02:15:38;9.20;99.90
31369;DHT22;18004;48.416;10.066;2022-10-31T02:18:04;9.10;99.90
31369;DHT22;18004;48.416;10.066;2022-10-31T02:20:42;9.00;99.90
31369;DHT22;18004;48.416;10.066;2022-10-31T02:33:43;8.90;99.90
31369;DHT22;18004;48.416;10.066;2022-10-31T02:48:56;8.70;99.90
31369;DHT22;18004;48.416;10.066;2022-10-31T02:51:25;8.70;99.90
31369;DHT22;18004;48.416;10.066;2022-10-31T02:53:51;8.70;99.90
31369;DHT22;18004;48.416;10.066;2022-10-31T02:56:17;8.70;99.90
31369;DHT22;18004;48.416;10.066;2022-10-31T02:58:47;8.60;99.90
31369;DHT22;18004;48.416;10.066;2022-10-31T03:03:44;8.60;99.90
31369;DHT22;18004;48.416;10.066;2022-10-31T03:06:20;8.60;99.90
31369;DHT22;18004;48.416;10.066;2022-10-31T03:08:58;8.60;99.90
31369;DHT22;18004;48.416;10.066;2022-10-31T03:11:29;8.60;99.90
31369;DHT22;18004;48.416;10.066;2022-10-31T03:14:01;8.50;99.90
31369;DHT22;18004;48.416;10.066;2022-10-31T03:19:01;8.50;99.90
31369;DHT22;18004;48.416;10.066;2022-10-31T03:23:54;8.50;99.90
31369;DHT22;18004;48.416;10.066;2022-10-31T03:26:20;8.50;99.90
31369;DHT22;18004;48.416;10.066;2022-10-31T03:29:03;8.50;99.90
31369;DHT22;18004;48.416;10.066;2022-10-31T03:31:33;8.50;99.90
31369;DHT22;18004;48.416;10.066;2022-10-31T03:34:01;8.50;99.90
31369;DHT22;18004;48.416;10.066;2022-10-31T03:36:28;8.50;99.90
31369;DHT22;18004;48.416;10.066;2022-10-31T03:38:55;8.50;99.90
31369;DHT22;18004;48.416;10.066;2022-10-31T03:41:23;8.50;99.90
31369;DHT22;18004;48.416;10.066;2022-10-31T03:43:55;8.50;99.90
31369;DHT22;18004;48.416;10.066;2022-10-31T03:46:22;8.50;99.90
31369;DHT22;18004;48.416;10.066;2022-10-31T03:48:48;8.50;99.90
31369;DHT22;18004;48.416;10.066;2022-10-31T03:53:52;8.50;99.90
31369;DHT22;18004;48.416;10.066;2022-10-31T03:56:30;8.50;99.90
31369;DHT22;18004;48.416;10.066;2022-10-31T03:59:10;8.50;99.90
31369;DHT22;18004;48.416;10.066;2022-10-31T04:01:40;8.40;99.90
31369;DHT22;18004;48.416;10.066;2022-10-31T04:04:06;8.40;99.90
31369;DHT22;18004;48.416;10.066;2022-10-31T04:06:32;8.40;99.90
31369;DHT22;18004;48.416;10.066;2022-10-31T04:09:01;8.40;99.90
31369;DHT22;18004;48.416;10.066;2022-10-31T04:11:30;8.30;99.90
31369;DHT22;18004;48.416;10.066;2022-10-31T04:13:56;8.30;99.90
31369;DHT22;18004;48.416;10.066;2022-10-31T04:16:23;8.30;99.90
31369;DHT22;18004;48.416;10.066;2022-10-31T04:18:49;8.30;99.90
31369;DHT22;18004;48.416;10.066;2022-10-31T04:21:14;8.20;99.90
31369;DHT22;18004;48.416;10.066;2022-10-31T04:23:40;8.20;99.90
31369;DHT22;18004;48.416;10.066;2022-10-31T04:26:06;8.10;99.90
31369;DHT22;18004;48.416;10.066;2022-10-31T04:28:31;8.10;99.90
31369;DHT22;18004;48.416;10.066;2022-10-31T04:30:59;8.10;99.90
31369;DHT22;18004;48.416;10.066;2022-10-31T04:33:24;8.10;99.90
31369;DHT22;18004;48.416;10.066;2022-10-31T04:35:50;8.10;99.90
31369;DHT22;18004;48.416;10.066;2022-10-31T04:38:16;8.00;99.90
31369;DHT22;18004;48.416;10.066;2022-10-31T04:40:41;8.00;99.90
31369;DHT22;18004;48.416;10.066;2022-10-31T04:43:07;8.00;99.90
31369;DHT22;18004;48.416;10.066;2022-10-31T04:45:33;7.90;99.90
31369;DHT22;18004;48.416;10.066;2022-10-31T04:47:58;7.90;99.90
31369;DHT22;18004;48.416;10.066;2022-10-31T04:50:24;7.90;99.90
31369;DHT22;18004;48.416;10.066;2022-10-31T04:52:49;7.90;99.90
31369;DHT22;18004;48.416;10.066;2022-10-31T04:55:15;7.90;99.90
31369;DHT22;18004;48.416;10.066;2022-10-31T04:57:41;7.90;99.90
31369;DHT22;18004;48.416;10.066;2022-10-31T05:00:07;7.90;99.90
31369;DHT22;18004;48.416;10.066;2022-10-31T05:02:33;7.90;99.90
31369;DHT22;18004;48.416;10.066;2022-10-31T05:05:02;7.90;99.90
31369;DHT22;18004;48.416;10.066;2022-10-31T05:07:29;7.90;99.90
31369;DHT22;18004;48.416;10.066;2022-10-31T05:09:55;7.80;99.90
31369;DHT22;18004;48.416;10.066;2022-10-31T05:12:20;7.80;99.90
31369;DHT22;18004;48.416;10.066;2022-10-31T05:14:46;7.80;99.90
31369;DHT22;18004;48.416;10.066;2022-10-31T05:17:12;7.80;99.90
31369;DHT22;18004;48.416;10.066;2022-10-31T05:19:37;7.80;99.90
31369;DHT22;18004;48.416;10.066;2022-10-31T05:22:03;7.80;99.90
31369;DHT22;18004;48.416;10.066;2022-10-31T05:24:28;7.80;99.90
31369;DHT22;18004;48.416;10.066;2022-10-31T05:26:54;7.70;99.90
31369;DHT22;18004;48.416;10.066;2022-10-31T05:29:19;7.80;99.90
31369;DHT22;18004;48.416;10.066;2022-10-31T05:31:45;7.70;99.90
31369;DHT22;18004;48.416;10.066;2022-10-31T05:34:11;7.70;99.90
31369;DHT22;18004;48.416;10.066;2022-10-31T05:36:36;7.70;99.90
31369;DHT22;18004;48.416;10.066;2022-10-31T05:39:02;7.70;99.90
31369;DHT22;18004;48.416;10.066;2022-10-31T05:41:28;7.70;99.90
31369;DHT22;18004;48.416;10.066;2022-10-31T05:43:53;7.70;99.90
31369;DHT22;18004;48.416;10.066;2022-10-31T05:46:19;7.70;99.90
31369;DHT22;18004;48.416;10.066;2022-10-31T05:48:45;7.60;99.90
31369;DHT22;18004;48.416;10.066;2022-10-31T05:51:11;7.60;99.90
31369;DHT22;18004;48.416;10.066;2022-10-31T05:53:37;7.60;99.90
31369;DHT22;18004;48.416;10.066;2022-10-31T05:56:03;7.60;99.90
31369;DHT22;18004;48.416;10.066;2022-10-31T05:58:28;7.60;99.90
31369;DHT22;18004;48.416;10.066;2022-10-31T06:00:54;7.50;99.90
31369;DHT22;18004;48.416;10.066;2022-10-31T06:03:20;7.50;99.90
31369;DHT22;18004;48.416;10.066;2022-10-31T06:05:45;7.50;99.90
31369;DHT22;18004;48.416;10.066;2022-10-31T06:08:11;7.50;99.90
31369;DHT22;18004;48.416;10.066;2022-10-31T06:10:37;7.40;99.90
31369;DHT22;18004;48.416;10.066;2022-10-31T06:13:02;7.50;99.90
31369;DHT22;18004;48.416;10.066;2022-10-31T06:15:28;7.50;99.90
31369;DHT22;18004;48.416;10.066;2022-10-31T06:17:57;7.50;99.90
31369;DHT22;18004;48.416;10.066;2022-10-31T06:20:23;7.40;99.90
31369;DHT22;18004;48.416;10.066;2022-10-31T06:22:49;7.40;99.90
31369;DHT22;18004;48.416;10.066;2022-10-31T06:25:14;7.40;99.90
31369;DHT22;18004;48.416;10.066;2022-10-31T06:27:40;7.40;99.90
31369;DHT22;18004;48.416;10.066;2022-10-31T06:30:06;7.40;99.90
31369;DHT22;18004;48.416;10.066;2022-10-31T06:32:31;7.40;99.90
31369;DHT22;18004;48.416;10.066;2022-10-31T06:34:57;7.40;99.90
31369;DHT22;18004;48.416;10.066;2022-10-31T06:37:23;7.40;99.90
31369;DHT22;18004;48.416;10.066;2022-10-31T06:39:48;7.50;99.90
31369;DHT22;18004;48.416;10.066;2022-10-31T06:42:15;7.50;99.90
31369;DHT22;18004;48.416;10.066;2022-10-31T06:44:40;7.60;99.90
31369;DHT22;18004;48.416;10.066;2022-10-31T06:47:06;7.60;99.90
31369;DHT22;18004;48.416;10.066;2022-10-31T06:49:32;7.60;99.90
31369;DHT22;18004;48.416;10.066;2022-10-31T06:51:57;7.70;99.90
31369;DHT22;18004;48.416;10.066;2022-10-31T06:54:23;7.70;99.90
31369;DHT22;18004;48.416;10.066;2022-10-31T06:56:49;7.80;99.90
31369;DHT22;18004;48.416;10.066;2022-10-31T06:59:15;7.80;99.90
31369;DHT22;18004;48.416;10.066;2022-10-31T07:01:40;7.80;99.90
31369;DHT22;18004;48.416;10.066;2022-10-31T07:04:09;7.90;99.90
31369;DHT22;18004;48.416;10.066;2022-10-31T07:06:35;7.90;99.90
31369;DHT22;18004;48.416;10.066;2022-10-31T07:09:01;8.00;99.90
31369;DHT22;18004;48.416;10.066;2022-10-31T07:11:26;8.00;99.90
31369;DHT22;18004;48.416;10.066;2022-10-31T07:13:52;8.00;99.90
31369;DHT22;18004;48.416;10.066;2022-10-31T07:16:19;8.10;99.90
31369;DHT22;18004;48.416;10.066;2022-10-31T07:18:45;8.10;99.90
31369;DHT22;18004;48.416;10.066;2022-10-31T07:21:11;8.20;99.90
31369;DHT22;18004;48.416;10.066;2022-10-31T07:23:36;8.20;99.90
31369;DHT22;18004;48.416;10.066;2022-10-31T07:26:02;8.30;99.90
31369;DHT22;18004;48.416;10.066;2022-10-31T07:28:28;8.40;99.90
31369;DHT22;18004;48.416;10.066;2022-10-31T07:30:54;8.40;99.90
31369;DHT22;18004;48.416;10.066;2022-10-31T07:33:20;8.50;99.90
31369;DHT22;18004;48.416;10.066;2022-10-31T07:35:46;8.60;99.90
31369;DHT22;18004;48.416;10.066;2022-10-31T07:38:12;8.70;99.90
31369;DHT22;18004;48.416;10.066;2022-10-31T07:40:38;8.70;99.90
31369;DHT22;18004;48.416;10.066;2022-10-31T07:43:04;8.80;99.90
31369;DHT22;18004;48.416;10.066;2022-10-31T07:45:30;8.90;99.90
31369;DHT22;18004;48.416;10.066;2022-10-31T07:47:56;9.00;99.90
31369;DHT22;18004;48.416;10.066;2022-10-31T07:50:26;9.10;99.90
31369;DHT22;18004;48.416;10.066;2022-10-31T07:53:02;9.20;99.90
31369;DHT22;18004;48.416;10.066;2022-10-31T07:55:28;9.30;99.90
31369;DHT22;18004;48.416;10.066;2022-10-31T08:00:23;9.40;99.90
31369;DHT22;18004;48.416;10.066;2022-10-31T08:02:55;9.50;99.90
31369;DHT22;18004;48.416;10.066;2022-10-31T08:05:21;9.70;99.90
31369;DHT22;18004;48.416;10.066;2022-10-31T08:07:46;9.70;99.90
31369;DHT22;18004;48.416;10.066;2022-10-31T08:10:12;9.80;99.90
31369;DHT22;18004;48.416;10.066;2022-10-31T08:12:38;9.90;99.90
31369;DHT22;18004;48.416;10.066;2022-10-31T08:15:04;10.00;99.90
31369;DHT22;18004;48.416;10.066;2022-10-31T08:17:29;10.00;99.90
31369;DHT22;18004;48.416;10.066;2022-10-31T08:19:55;10.00;99.90
31369;DHT22;18004;48.416;10.066;2022-10-31T08:22:21;10.20;99.90
31369;DHT22;18004;48.416;10.066;2022-10-31T08:24:46;10.20;99.90
31369;DHT22;18004;48.416;10.066;2022-10-31T08:27:12;10.30;99.90
31369;DHT22;18004;48.416;10.066;2022-10-31T08:29:37;10.30;99.90
31369;DHT22;18004;48.416;10.066;2022-10-31T08:32:03;10.50;99.90
31369;DHT22;18004;48.416;10.066;2022-10-31T08:34:29;10.60;99.90
31369;DHT22;18004;48.416;10.066;2022-10-31T08:36:54;10.70;99.90
31369;DHT22;18004;48.416;10.066;2022-10-31T08:39:20;10.80;99.90
31369;DHT22;18004;48.416;10.066;2022-10-31T08:41:45;10.90;99.90
31369;DHT22;18004;48.416;10.066;2022-10-31T08:44:11;11.00;99.90
31369;DHT22;18004;48.416;10.066;2022-10-31T08:46:37;11.10;99.90
31369;DHT22;18004;48.416;10.066;2022-10-31T08:49:02;11.30;99.90
31369;DHT22;18004;48.416;10.066;2022-10-31T08:51:28;11.30;99.90
31369;DHT22;18004;48.416;10.066;2022-10-31T08:53:54;11.40;99.90
31369;DHT22;18004;48.416;10.066;2022-10-31T08:56:19;11.50;99.90
31369;DHT22;18004;48.416;10.066;2022-10-31T08:58:45;11.60;99.90
31369;DHT22;18004;48.416;10.066;2022-10-31T09:01:10;11.70;99.90
31369;DHT22;18004;48.416;10.066;2022-10-31T09:03:36;11.80;99.90
31369;DHT22;18004;48.416;10.066;2022-10-31T09:06:02;11.80;99.90
31369;DHT22;18004;48.416;10.066;2022-10-31T09:08:31;11.90;99.90
31369;DHT22;18004;48.416;10.066;2022-10-31T09:10:57;11.90;99.90
31369;DHT22;18004;48.416;10.066;2022-10-31T09:13:23;12.00;99.90
31369;DHT22;18004;48.416;10.066;2022-10-31T09:15:49;12.00;99.90
31369;DHT22;18004;48.416;10.066;2022-10-31T09:18:17;12.10;99.90
31369;DHT22;18004;48.416;10.066;2022-10-31T09:20:43;12.10;99.90
31369;DHT22;18004;48.416;10.066;2022-10-31T09:23:13;12.10;99.90
31369;DHT22;18004;48.416;10.066;2022-10-31T09:25:38;12.20;99.90
31369;DHT22;18004;48.416;10.066;2022-10-31T09:28:05;12.30;99.90
31369;DHT22;18004;48.416;10.066;2022-10-31T09:30:31;12.20;99.90
31369;DHT22;18004;48.416;10.066;2022-10-31T09:32:58;12.20;99.90
31369;DHT22;18004;48.416;10.066;2022-10-31T09:35:24;12.40;99.90
31369;DHT22;18004;48.416;10.066;2022-10-31T09:37:56;12.40;99.90
31369;DHT22;18004;48.416;10.066;2022-10-31T09:40:41;12.40;99.90
31369;DHT22;18004;48.416;10.066;2022-10-31T09:45:39;12.70;99.90
31369;DHT22;18004;48.416;10.066;2022-10-31T09:48:29;12.70;99.90
31369;DHT22;18004;48.416;10.066;2022-10-31T09:51:06;12.80;99.90
31369;DHT22;18004;48.416;10.066;2022-10-31T09:54:06;12.90;99.90
31369;DHT22;18004;48.416;10.066;2022-10-31T09:56:24;13.00;99.90
31369;DHT22;18004;48.416;10.066;2022-10-31T09:59:00;13.10;99.90
31369;DHT22;18004;48.416;10.066;2022-10-31T10:01:32;13.20;99.90
31369;DHT22;18004;48.416;10.066;2022-10-31T10:04:03;13.20;99.90
31369;DHT22;18004;48.416;10.066;2022-10-31T10:06:32;13.30;99.90
31369;DHT22;18004;48.416;10.066;2022-10-31T10:09:00;13.40;99.90
31369;DHT22;18004;48.416;10.066;2022-10-31T10:29:34;13.90;99.90
31369;DHT22;18004;48.416;10.066;2022-10-31T10:32:05;13.90;99.90
31369;DHT22;18004;48.416;10.066;2022-10-31T10:34:47;13.90;99.90
31369;DHT22;18004;48.416;10.066;2022-10-31T10:39:44;14.10;99.90
31369;DHT22;18004;48.416;10.066;2022-10-31T10:42:11;14.10;99.90
31369;DHT22;18004;48.416;10.066;2022-10-31T10:44:56;13.80;99.90
31369;DHT22;18004;48.416;10.066;2022-10-31T10:47:42;13.90;99.90
31369;DHT22;18004;48.416;10.066;2022-10-31T10:50:15;14.10;99.90
31369;DHT22;18004;48.416;10.066;2022-10-31T10:58:06;14.50;99.90
31369;DHT22;18004;48.416;10.066;2022-10-31T11:03:04;14.50;99.90
31369;DHT22;18004;48.416;10.066;2022-10-31T11:05:37;14.60;99.90
31369;DHT22;18004;48.416;10.066;2022-10-31T11:08:04;14.70;99.90
31369;DHT22;18004;48.416;10.066;2022-10-31T11:10:30;14.70;99.90
31369;DHT22;18004;48.416;10.066;2022-10-31T11:13:01;14.50;99.90
31369;DHT22;18004;48.416;10.066;2022-10-31T11:15:28;14.60;99.90
31369;DHT22;18004;48.416;10.066;2022-10-31T11:17:55;14.70;99.90
31369;DHT22;18004;48.416;10.066;2022-10-31T11:20:29;14.80;99.90
31369;DHT22;18004;48.416;10.066;2022-10-31T11:23:01;14.90;99.90
31369;DHT22;18004;48.416;10.066;2022-10-31T11:25:27;15.00;99.90
31369;DHT22;18004;48.416;10.066;2022-10-31T11:28:07;15.10;99.90
31369;DHT22;18004;48.416;10.066;2022-10-31T11:30:47;15.10;99.90
31369;DHT22;18004;48.416;10.066;2022-10-31T11:33:16;15.30;99.90
31369;DHT22;18004;48.416;10.066;2022-10-31T11:35:42;15.40;99.90
31369;DHT22;18004;48.416;10.066;2022-10-31T11:38:12;15.50;99.90
31369;DHT22;18004;48.416;10.066;2022-10-31T11:40:40;15.70;99.90
31369;DHT22;18004;48.416;10.066;2022-10-31T11:43:16;15.70;99.90
31369;DHT22;18004;48.416;10.066;2022-10-31T11:45:43;16.00;99.90
31369;DHT22;18004;48.416;10.066;2022-10-31T11:48:18;16.10;99.90
31369;DHT22;18004;48.416;10.066;2022-10-31T11:50:49;16.10;99.90
31369;DHT22;18004;48.416;10.066;2022-10-31T11:53:16;16.30;99.90
31369;DHT22;18004;48.416;10.066;2022-10-31T11:55:42;16.30;99.90
31369;DHT22;18004;48.416;10.066;2022-10-31T11:58:24;16.40;99.90
31369;DHT22;18004;48.416;10.066;2022-10-31T12:00:52;16.60;99.90
31369;DHT22;18004;48.416;10.066;2022-10-31T12:05:51;16.90;99.90
31369;DHT22;18004;48.416;10.066;2022-10-31T12:08:19;16.90;99.90
31369;DHT22;18004;48.416;10.066;2022-10-31T12:10:58;16.70;99.90
31369;DHT22;18004;48.416;10.066;2022-10-31T12:13:39;16.90;99.90
31369;DHT22;18004;48.416;10.066;2022-10-31T12:16:21;16.90;99.90
31369;DHT22;18004;48.416;10.066;2022-10-31T12:23:52;16.90;99.90
31369;DHT22;18004;48.416;10.066;2022-10-31T12:26:24;16.80;99.90
31369;DHT22;18004;48.416;10.066;2022-10-31T12:52:31;17.10;99.90
31369;DHT22;18004;48.416;10.066;2022-10-31T12:55:03;17.20;99.40
31369;DHT22;18004;48.416;10.066;2022-10-31T13:00:00;17.10;98.60
31369;DHT22;18004;48.416;10.066;2022-10-31T13:02:35;17.00;99.30
31369;DHT22;18004;48.416;10.066;2022-10-31T13:05:05;16.80;99.00
31369;DHT22;18004;48.416;10.066;2022-10-31T13:07:41;16.70;99.90
31369;DHT22;18004;48.416;10.066;2022-10-31T13:12:37;16.80;99.90
31369;DHT22;18004;48.416;10.066;2022-10-31T13:15:05;16.80;99.90
31369;DHT22;18004;48.416;10.066;2022-10-31T13:17:38;16.80;99.90
31369;DHT22;18004;48.416;10.066;2022-10-31T13:20:25;16.70;99.90
31369;DHT22;18004;48.416;10.066;2022-10-31T13:25:41;16.60;99.90
31369;DHT22;18004;48.416;10.066;2022-10-31T13:28:12;16.50;99.90
31369;DHT22;18004;48.416;10.066;2022-10-31T13:30:40;16.60;99.90
31369;DHT22;18004;48.416;10.066;2022-10-31T13:35:43;16.50;99.90
31369;DHT22;18004;48.416;10.066;2022-10-31T13:38:34;16.50;99.90
31369;DHT22;18004;48.416;10.066;2022-10-31T13:41:02;16.60;99.90
31369;DHT22;18004;48.416;10.066;2022-10-31T13:43:41;16.50;99.90
31369;DHT22;18004;48.416;10.066;2022-10-31T13:46:25;16.50;99.90
31369;DHT22;18004;48.416;10.066;2022-10-31T13:48:51;16.50;99.90
31369;DHT22;18004;48.416;10.066;2022-10-31T13:51:24;16.40;99.90
31369;DHT22;18004;48.416;10.066;2022-10-31T13:56:17;16.50;99.90
31369;DHT22;18004;48.416;10.066;2022-10-31T14:01:27;16.60;99.90
31369;DHT22;18004;48.416;10.066;2022-10-31T14:03:59;16.50;99.90
31369;DHT22;18004;48.416;10.066;2022-10-31T14:07:26;16.50;99.90
31369;DHT22;18004;48.416;10.066;2022-10-31T14:09:32;16.70;99.90
31369;DHT22;18004;48.416;10.066;2022-10-31T14:12:01;16.60;99.90
31369;DHT22;18004;48.416;10.066;2022-10-31T14:14:30;16.60;99.90
31369;DHT22;18004;48.416;10.066;2022-10-31T14:16:57;16.70;99.90
31369;DHT22;18004;48.416;10.066;2022-10-31T14:19:23;16.90;99.90
31369;DHT22;18004;48.416;10.066;2022-10-31T14:21:52;17.00;99.90
31369;DHT22;18004;48.416;10.066;2022-10-31T14:27:50;16.80;99.90
31369;DHT22;18004;48.416;10.066;2022-10-31T14:29:46;16.90;99.90
31369;DHT22;18004;48.416;10.066;2022-10-31T14:42:27;17.20;99.90
31369;DHT22;18004;48.416;10.066;2022-10-31T14:52:13;17.30;99.90
31369;DHT22;18004;48.416;10.066;2022-10-31T14:54:39;17.30;99.80
31369;DHT22;18004;48.416;10.066;2022-10-31T14:57:16;17.20;99.90
31369;DHT22;18004;48.416;10.066;2022-10-31T14:59:45;17.10;99.90
31369;DHT22;18004;48.416;10.066;2022-10-31T15:02:15;17.10;99.90
31369;DHT22;18004;48.416;10.066;2022-10-31T15:04:43;17.00;99.90
31369;DHT22;18004;48.416;10.066;2022-10-31T15:09:36;17.10;99.90
31369;DHT22;18004;48.416;10.066;2022-10-31T15:12:22;17.10;99.90
31369;DHT22;18004;48.416;10.066;2022-10-31T15:14:48;17.10;99.90
31369;DHT22;18004;48.416;10.066;2022-10-31T15:17:13;17.00;99.90
31369;DHT22;18004;48.416;10.066;2022-10-31T15:19:39;16.90;99.90
31369;DHT22;18004;48.416;10.066;2022-10-31T15:22:05;16.90;99.90
31369;DHT22;18004;48.416;10.066;2022-10-31T15:24:34;16.60;99.90
31369;DHT22;18004;48.416;10.066;2022-10-31T15:27:00;16.60;99.90
31369;DHT22;18004;48.416;10.066;2022-10-31T15:29:27;16.60;99.90
31369;DHT22;18004;48.416;10.066;2022-10-31T15:31:55;16.60;99.90
31369;DHT22;18004;48.416;10.066;2022-10-31T15:34:55;16.60;99.90
31369;DHT22;18004;48.416;10.066;2022-10-31T15:37:14;16.70;99.90
31369;DHT22;18004;48.416;10.066;2022-10-31T15:39:41;16.60;99.90
31369;DHT22;18004;48.416;10.066;2022-10-31T15:42:27;16.40;99.90
31369;DHT22;18004;48.416;10.066;2022-10-31T15:45:05;16.10;99.90
31369;DHT22;18004;48.416;10.066;2022-10-31T15:47:31;16.00;99.90
31369;DHT22;18004;48.416;10.066;2022-10-31T15:49:58;15.90;99.90
31369;DHT22;18004;48.416;10.066;2022-10-31T15:55:15;15.70;99.90
31369;DHT22;18004;48.416;10.066;2022-10-31T15:57:44;15.60;99.90
31369;DHT22;18004;48.416;10.066;2022-10-31T16:02:48;15.70;99.90
31369;DHT22;18004;48.416;10.066;2022-10-31T16:05:18;15.80;99.90
31369;DHT22;18004;48.416;10.066;2022-10-31T16:07:50;15.90;99.90
31369;DHT22;18004;48.416;10.066;2022-10-31T16:10:24;15.60;99.90
31369;DHT22;18004;48.416;10.066;2022-10-31T16:12:50;15.60;99.90
31369;DHT22;18004;48.416;10.066;2022-10-31T16:15:17;15.30;99.90
31369;DHT22;18004;48.416;10.066;2022-10-31T16:17:44;15.40;99.90
31369;DHT22;18004;48.416;10.066;2022-10-31T16:20:23;15.30;99.90
31369;DHT22;18004;48.416;10.066;2022-10-31T16:22:51;15.40;99.90
31369;DHT22;18004;48.416;10.066;2022-10-31T16:27:50;15.20;99.90
31369;DHT22;18004;48.416;10.066;2022-10-31T16:30:50;15.10;99.90
31369;DHT22;18004;48.416;10.066;2022-10-31T16:35:49;15.20;99.90
31369;DHT22;18004;48.416;10.066;2022-10-31T16:38:15;15.00;99.90
31369;DHT22;18004;48.416;10.066;2022-10-31T16:40:41;14.90;99.90
31369;DHT22;18004;48.416;10.066;2022-10-31T16:43:11;14.90;99.90
31369;DHT22;18004;48.416;10.066;2022-10-31T16:45:37;14.90;99.90
31369;DHT22;18004;48.416;10.066;2022-10-31T16:48:11;14.80;99.90
31369;DHT22;18004;48.416;10.066;2022-10-31T16:50:37;14.70;99.90
31369;DHT22;18004;48.416;10.066;2022-10-31T16:53:03;14.40;99.90
31369;DHT22;18004;48.416;10.066;2022-10-31T16:55:29;14.20;99.90
31369;DHT22;18004;48.416;10.066;2022-10-31T16:57:55;14.30;99.90
31369;DHT22;18004;48.416;10.066;2022-10-31T17:00:22;14.40;99.90
31369;DHT22;18004;48.416;10.066;2022-10-31T17:02:48;14.20;99.90
31369;DHT22;18004;48.416;10.066;2022-10-31T17:05:15;14.10;99.90
31369;DHT22;18004;48.416;10.066;2022-10-31T17:07:41;14.10;99.90
31369;DHT22;18004;48.416;10.066;2022-10-31T17:10:07;14.00;99.90
31369;DHT22;18004;48.416;10.066;2022-10-31T17:12:33;14.10;99.90
31369;DHT22;18004;48.416;10.066;2022-10-31T17:15:00;14.10;99.90
31369;DHT22;18004;48.416;10.066;2022-10-31T17:17:25;14.10;99.90
31369;DHT22;18004;48.416;10.066;2022-10-31T17:19:51;14.10;99.90
31369;DHT22;18004;48.416;10.066;2022-10-31T17:22:17;13.80;99.90
31369;DHT22;18004;48.416;10.066;2022-10-31T17:24:42;13.70;99.90
31369;DHT22;18004;48.416;10.066;2022-10-31T17:27:08;13.60;99.90
31369;DHT22;18004;48.416;10.066;2022-10-31T17:29:34;13.60;99.90
31369;DHT22;18004;48.416;10.066;2022-10-31T17:32:00;13.60;99.90
31369;DHT22;18004;48.416;10.066;2022-10-31T17:34:27;13.70;99.90
31369;DHT22;18004;48.416;10.066;2022-10-31T17:36:53;13.70;99.90
31369;DHT22;18004;48.416;10.066;2022-10-31T17:39:19;13.70;99.90
31369;DHT22;18004;48.416;10.066;2022-10-31T17:41:45;13.70;99.90
31369;DHT22;18004;48.416;10.066;2022-10-31T17:44:11;13.60;99.90
31369;DHT22;18004;48.416;10.066;2022-10-31T17:46:37;13.50;99.90
31369;DHT22;18004;48.416;10.066;2022-10-31T17:49:03;13.20;99.90
31369;DHT22;18004;48.416;10.066;2022-10-31T17:51:29;13.10;99.90
31369;DHT22;18004;48.416;10.066;2022-10-31T17:53:56;13.00;99.90
31369;DHT22;18004;48.416;10.066;2022-10-31T17:56:22;12.90;99.90
31369;DHT22;18004;48.416;10.066;2022-10-31T17:58:47;12.70;99.90
31369;DHT22;18004;48.416;10.066;2022-10-31T18:01:13;12.50;99.90